Time;durP1;ratioP1;P1;durP2;ratioP2;P2;SDS_P1;SDS_P2;PMS_P1;PMS_P2;Temp;Humidity;BMP_temperature;BMP_pressure;BME280_temperature;BME280_humidity;BME280_pressure;Samples;Min_cycle;Max_cycle;Signal;HPM_P1;HPM_P2
2022/02/09 00:02:29;;;;;;;;;;;;;;;-4.70;98.35;99069.47;5114767;28;19923;-72
2022/02/09 00:05:07;;;;;;;;;;;;;;;-4.70;98.05;99075.41;5114953;28;19975;-72
2022/02/09 00:07:39;;;;;;;;;;;;;;;-4.74;97.91;99068.69;5114453;28;20389;-72
2022/02/09 00:10:06;;;;;;;;;;;;;;;-4.77;98.18;99066.22;5114549;28;19923;-64
2022/02/09 00:12:38;;;;;;;;;;;;;;;-4.70;98.35;99062.72;5114111;28;19927;-71
2022/02/09 00:15:18;;;;;;;;;;;;;;;-4.70;98.31;99072.84;5114169;28;20386;-72
2022/02/09 00:17:53;;;;;;;;;;;;;;;-4.65;98.21;99082.88;5114520;28;19980;-72
2022/02/09 00:23:48;;;;;;;;;;;;;;;-4.70;98.17;99083.00;5114146;28;19924;-72
2022/02/09 00:29:15;;;;;;;;;;;;;;;-4.65;98.57;99081.22;5114016;28;19965;-72
2022/02/09 00:32:09;;;;;;;;;;;;;;;-4.60;98.06;99086.19;5114430;28;19931;-70
2022/02/09 00:37:41;;;;;;;;;;;;;;;-4.60;98.66;99096.31;5109901;28;19924;-67
2022/02/09 01:38:09;;;;;;;;;;;;;;;-4.34;100.00;99105.97;5113123;28;20381;-63
2022/02/09 01:56:59;;;;;;;;;;;;;;;-4.83;99.12;99110.31;5112822;28;20400;-71
2022/02/09 01:59:26;;;;;;;;;;;;;;;-4.91;99.23;99109.59;5112658;28;20270;-61
2022/02/09 02:01:53;;;;;;;;;;;;;;;-5.04;99.01;99109.00;5112683;28;20028;-71
2022/02/09 02:04:23;;;;;;;;;;;;;;;-5.13;98.56;99121.00;5112672;28;19924;-68
2022/02/09 02:06:51;;;;;;;;;;;;;;;-5.32;98.42;99118.81;5112665;28;20378;-70
2022/02/09 02:09:18;;;;;;;;;;;;;;;-5.36;98.13;99126.47;5112861;28;20281;-71
2022/02/09 02:11:48;;;;;;;;;;;;;;;-5.58;98.08;99124.25;5113180;28;19977;-71
2022/02/09 02:14:23;;;;;;;;;;;;;;;-5.71;98.86;99123.63;5113577;28;19924;-71
2022/02/09 02:16:53;;;;;;;;;;;;;;;-5.82;98.74;99125.47;5113674;28;19996;-70
2022/02/09 02:19:32;;;;;;;;;;;;;;;-5.94;99.66;99131.56;5115150;28;20266;-70
2022/02/09 02:22:09;;;;;;;;;;;;;;;-5.90;99.40;99152.63;5116983;28;19928;-70
2022/02/09 02:33:25;;;;;;;;;;;;;;;-5.92;99.69;99164.47;5097604;28;19924;-71
2022/02/09 02:36:19;;;;;;;;;;;;;;;-5.84;99.30;99177.03;5116394;27;20014;-68
2022/02/09 02:39:13;;;;;;;;;;;;;;;-5.82;99.70;99166.00;5116365;28;20022;-71
2022/02/09 02:47:32;;;;;;;;;;;;;;;-5.93;100.00;99153.50;5116061;28;19924;-68
2022/02/09 03:09:19;;;;;;;;;;;;;;;-6.04;100.00;99152.81;5115587;28;19930;-62
2022/02/09 03:14:46;;;;;;;;;;;;;;;-5.67;100.00;99134.56;5090139;28;19924;-72
2022/02/09 03:17:17;;;;;;;;;;;;;;;-5.59;100.00;99145.41;5115460;28;20482;-71
2022/02/09 03:19:53;;;;;;;;;;;;;;;-5.25;98.57;99147.41;5115478;28;19928;-71
2022/02/09 03:22:27;;;;;;;;;;;;;;;-5.23;98.36;99150.75;5115569;28;19963;-71
2022/02/09 03:47:39;;;;;;;;;;;;;;;-4.76;100.00;99149.09;5131175;27;20051;-72
2022/02/09 03:50:33;;;;;;;;;;;;;;;-4.75;100.00;99153.31;5130822;27;19958;-70
2022/02/09 03:53:22;;;;;;;;;;;;;;;-4.70;100.00;99141.38;5130791;28;19927;-63
2022/02/09 03:56:12;;;;;;;;;;;;;;;-4.69;100.00;99147.28;5131024;27;19924;-63
2022/02/09 03:58:38;;;;;;;;;;;;;;;-4.68;100.00;99147.22;5131159;27;20281;-72
2022/02/09 04:01:05;;;;;;;;;;;;;;;-4.67;100.00;99151.47;5130750;27;20365;-71
2022/02/09 04:03:33;;;;;;;;;;;;;;;-4.65;100.00;99136.19;5130663;27;19985;-72
2022/02/09 04:06:00;;;;;;;;;;;;;;;-4.67;100.00;99136.25;5130575;27;19924;-72
2022/02/09 04:08:30;;;;;;;;;;;;;;;-4.65;100.00;99141.25;5130721;27;19930;-72
2022/02/09 04:11:05;;;;;;;;;;;;;;;-4.68;100.00;99141.31;5130853;27;19924;-64
2022/02/09 04:13:41;;;;;;;;;;;;;;;-4.67;100.00;99148.94;5130744;27;20018;-73
2022/02/09 04:16:15;;;;;;;;;;;;;;;-4.64;100.00;99155.66;5130763;27;19931;-72
2022/02/09 04:19:01;;;;;;;;;;;;;;;-4.60;100.00;99167.41;5130346;27;20018;-72
2022/02/09 04:38:03;;;;;;;;;;;;;;;-5.02;100.00;99169.84;5130175;28;19938;-72
2022/02/09 04:43:26;;;;;;;;;;;;;;;-5.23;100.00;99162.59;5106255;27;20301;-70
2022/02/09 04:51:45;;;;;;;;;;;;;;;-5.50;100.00;99157.94;5086073;28;20379;-66
2022/02/09 04:54:23;;;;;;;;;;;;;;;-5.58;100.00;99156.38;5113328;27;19930;-64
2022/02/09 04:56:54;;;;;;;;;;;;;;;-5.60;100.00;99146.28;5127127;27;20362;-62
2022/02/09 04:59:28;;;;;;;;;;;;;;;-5.67;100.00;99136.25;5116010;28;20275;-61
2022/02/09 05:02:17;;;;;;;;;;;;;;;-5.71;100.00;99132.91;5116174;28;20010;-62
2022/02/09 05:05:18;;;;;;;;;;;;;;;-5.74;100.00;99135.50;5115866;28;19960;-62
2022/02/09 05:24:22;;;;;;;;;;;;;;;-6.06;100.00;99134.31;5090385;28;19924;-61
2022/02/09 05:27:00;;;;;;;;;;;;;;;-6.06;100.00;99126.72;5115446;28;20408;-66
2022/02/09 05:29:27;;;;;;;;;;;;;;;-6.09;100.00;99141.91;5115473;28;19923;-61
2022/02/09 05:31:53;;;;;;;;;;;;;;;-6.17;100.00;99139.47;5115904;28;20378;-61
2022/02/09 05:34:20;;;;;;;;;;;;;;;-6.10;100.00;99147.84;5115243;28;19931;-61
2022/02/09 05:36:47;;;;;;;;;;;;;;;-6.11;100.00;99141.13;5115450;28;19924;-62
2022/02/09 05:39:13;;;;;;;;;;;;;;;-6.07;100.00;99132.59;5115363;28;20007;-70
2022/02/09 05:41:44;;;;;;;;;;;;;;;-6.09;100.00;99130.94;5115022;28;19930;-61
2022/02/09 05:44:13;;;;;;;;;;;;;;;-6.09;100.00;99125.88;5115312;28;19924;-61
2022/02/09 05:49:38;;;;;;;;;;;;;;;-6.18;100.00;99121.81;5114579;28;19928;-63
2022/02/09 05:52:16;;;;;;;;;;;;;;;-6.23;100.00;99118.50;5114939;28;19928;-63
2022/02/09 05:55:07;;;;;;;;;;;;;;;-6.18;100.00;99117.56;5114795;28;19924;-63
2022/02/09 05:57:46;;;;;;;;;;;;;;;-6.18;100.00;99122.63;5115251;28;19930;-64
2022/02/09 06:00:14;;;;;;;;;;;;;;;-6.21;100.00;99121.84;5114945;28;19934;-63
2022/02/09 06:02:40;;;;;;;;;;;;;;;-6.24;100.00;99124.38;5114723;28;19924;-63
2022/02/09 06:05:07;;;;;;;;;;;;;;;-6.25;100.00;99130.31;5114600;28;19924;-61
2022/02/09 06:07:34;;;;;;;;;;;;;;;-6.36;99.67;99130.47;5114843;28;19924;-64
2022/02/09 06:10:01;;;;;;;;;;;;;;;-6.38;100.00;99130.47;5113796;28;20018;-61
2022/02/09 06:12:33;;;;;;;;;;;;;;;-6.41;99.97;99127.16;5114615;28;19927;-63
2022/02/09 06:20:29;;;;;;;;;;;;;;;-6.49;100.00;99139.91;5114576;28;19930;-63
2022/02/09 06:22:56;;;;;;;;;;;;;;;-6.48;100.00;99138.19;5114235;28;19927;-62
2022/02/09 06:25:23;;;;;;;;;;;;;;;-6.43;100.00;99136.44;5114367;28;19923;-62
2022/02/09 06:27:50;;;;;;;;;;;;;;;-6.42;100.00;99144.03;5114147;28;19928;-63
2022/02/09 06:30:18;;;;;;;;;;;;;;;-6.50;99.96;99144.97;5114175;27;19924;-64
2022/02/09 06:32:45;;;;;;;;;;;;;;;-6.47;100.00;99140.72;5084081;22;19924;-70
2022/02/09 06:35:12;;;;;;;;;;;;;;;-6.38;100.00;99133.00;5053692;28;19960;-68
2022/02/09 06:37:42;;;;;;;;;;;;;;;-6.45;99.73;99135.63;5053385;28;20015;-68
2022/02/09 06:40:10;;;;;;;;;;;;;;;-6.50;99.59;99125.53;5050656;28;19924;-66
2022/02/09 06:42:39;;;;;;;;;;;;;;;-6.57;99.16;99129.03;5051788;28;19979;-67
2022/02/09 06:45:11;;;;;;;;;;;;;;;-6.61;99.49;99137.50;5052073;28;19936;-66
2022/02/09 06:47:40;;;;;;;;;;;;;;;-6.62;100.00;99134.13;5051429;28;19932;-66
2022/02/09 06:50:11;;;;;;;;;;;;;;;-6.59;99.86;99140.84;5051700;28;20469;-66
2022/02/09 06:52:42;;;;;;;;;;;;;;;-6.68;99.07;99143.47;5052056;28;20382;-66
2022/02/09 06:55:14;;;;;;;;;;;;;;;-6.64;100.00;99140.06;5052641;28;19925;-66
2022/02/09 07:00:25;;;;;;;;;;;;;;;-6.62;99.81;99146.78;5052781;28;19940;-66
2022/02/09 07:02:56;;;;;;;;;;;;;;;-6.64;99.70;99152.72;5051407;28;20019;-66
2022/02/09 07:05:27;;;;;;;;;;;;;;;-6.66;99.24;99157.78;5051020;28;19925;-67
2022/02/09 07:07:55;;;;;;;;;;;;;;;-6.71;99.32;99154.47;5051185;28;20027;-66
2022/02/09 07:10:24;;;;;;;;;;;;;;;-6.75;99.35;99154.53;5051668;28;19940;-66
2022/02/09 07:12:50;;;;;;;;;;;;;;;-6.77;99.29;99146.94;5052383;28;19924;-66
2022/02/09 07:15:26;;;;;;;;;;;;;;;-6.81;99.39;99153.75;5049525;28;19940;-66
2022/02/09 07:17:56;;;;;;;;;;;;;;;-6.78;99.42;99157.94;5050948;28;20334;-65
2022/02/09 07:20:26;;;;;;;;;;;;;;;-6.73;99.71;99165.44;5051513;28;19928;-66
2022/02/09 07:22:57;;;;;;;;;;;;;;;-6.66;100.00;99162.00;5049964;28;19932;-66
2022/02/09 07:25:30;;;;;;;;;;;;;;;-6.63;99.58;99167.03;5049928;28;20012;-66
2022/02/09 07:27:57;;;;;;;;;;;;;;;-6.62;99.29;99168.72;5051824;28;20313;-66
2022/02/09 07:30:25;;;;;;;;;;;;;;;-6.50;99.81;99166.03;5052523;28;19935;-66
2022/02/09 07:32:52;;;;;;;;;;;;;;;-6.49;99.14;99167.72;5049864;22;19925;-60
2022/02/09 07:35:20;;;;;;;;;;;;;;;-6.52;98.70;99162.72;5032820;28;19994;-62
2022/02/09 07:37:46;;;;;;;;;;;;;;;-6.51;98.61;99158.47;5032402;28;19935;-65
2022/02/09 07:40:14;;;;;;;;;;;;;;;-6.58;98.14;99160.22;5032406;28;19935;-60
2022/02/09 07:42:46;;;;;;;;;;;;;;;-6.57;98.15;99150.09;5032312;28;19932;-61
2022/02/09 07:48:37;;;;;;;;;;;;;;;-6.51;98.86;99149.19;5032459;28;19932;-61
2022/02/09 07:51:38;;;;;;;;;;;;;;;-6.49;98.43;99152.53;5032194;28;19925;-61
2022/02/09 07:54:05;;;;;;;;;;;;;;;-6.40;98.55;99149.06;5032560;28;19931;-61
2022/02/09 07:56:33;;;;;;;;;;;;;;;-6.36;98.56;99140.59;5032299;28;19973;-61
2022/02/09 07:59:00;;;;;;;;;;;;;;;-6.30;98.29;99139.66;5032287;28;20367;-61
2022/02/09 08:01:27;;;;;;;;;;;;;;;-6.26;97.81;99136.25;5032224;28;19929;-61
2022/02/09 08:03:54;;;;;;;;;;;;;;;-6.13;98.50;99131.00;5031936;28;19932;-62
2022/02/09 08:06:24;;;;;;;;;;;;;;;-5.89;98.23;99130.66;5032258;28;20020;-62
2022/02/09 08:08:51;;;;;;;;;;;;;;;-5.86;97.34;99131.44;5032212;28;19964;-63
2022/02/09 08:11:21;;;;;;;;;;;;;;;-5.79;97.38;99120.34;5032367;28;19932;-62
2022/02/09 08:27:39;;;;;;;;;;;;;;;-5.38;95.36;99112.97;5031834;28;19936;-63
2022/02/09 08:30:20;;;;;;;;;;;;;;;-5.42;95.88;99121.47;5032209;28;20269;-61
2022/02/09 08:32:53;;;;;;;;;;;;;;;-5.49;95.75;99115.69;5033768;28;20021;-62
2022/02/09 08:35:20;;;;;;;;;;;;;;;-5.42;95.93;99108.81;5035849;28;19925;-61
2022/02/09 08:37:50;;;;;;;;;;;;;;;-5.34;95.38;99107.00;5036021;28;19925;-61
2022/02/09 08:40:21;;;;;;;;;;;;;;;-5.28;94.96;99106.91;5035799;28;19995;-61
2022/02/09 08:42:47;;;;;;;;;;;;;;;-5.26;95.51;99100.09;5035566;28;20331;-60
2022/02/09 08:45:14;;;;;;;;;;;;;;;-5.23;94.13;99094.97;5035869;28;19947;-60
2022/02/09 08:47:41;;;;;;;;;;;;;;;-5.19;95.10;99095.75;5035315;28;19925;-61
2022/02/09 08:50:08;;;;;;;;;;;;;;;-5.12;94.59;99085.47;5035202;28;19932;-60
2022/02/09 08:52:35;;;;;;;;;;;;;;;-5.07;95.27;99078.63;5035271;28;20435;-61
2022/02/09 08:55:03;;;;;;;;;;;;;;;-4.97;94.95;99081.00;5035402;28;20269;-61
2022/02/09 08:57:30;;;;;;;;;;;;;;;-5.01;94.90;99076.81;5035120;28;19925;-61
2022/02/09 08:59:58;;;;;;;;;;;;;;;-4.92;95.22;99079.22;5035347;28;20438;-60
2022/02/09 09:02:33;;;;;;;;;;;;;;;-4.81;94.99;99073.03;5035145;28;19948;-60
2022/02/09 09:05:10;;;;;;;;;;;;;;;-4.78;94.99;99064.53;5035152;28;19979;-60
2022/02/09 09:07:38;;;;;;;;;;;;;;;-4.79;95.04;99054.44;5035392;28;19929;-61
2022/02/09 09:10:14;;;;;;;;;;;;;;;-4.75;94.54;99056.88;5035265;28;20284;-60
2022/02/09 10:02:35;;;;;;;;;;;;;;;-4.06;90.04;99013.91;5034069;28;20075;-61
2022/02/09 10:05:30;;;;;;;;;;;;;;;-3.69;89.21;99007.97;5033899;28;19925;-61
2022/02/09 10:33:02;;;;;;;;;;;;;;;-3.12;85.33;99013.25;5033828;28;20410;-63
2022/02/09 10:35:35;;;;;;;;;;;;;;;-2.91;85.13;99006.72;5027626;28;20469;-62
2022/02/09 10:38:16;;;;;;;;;;;;;;;-2.50;83.03;99006.41;5032843;28;19932;-63
2022/02/09 10:40:48;;;;;;;;;;;;;;;-2.82;83.75;99008.19;5013585;28;19972;-61
2022/02/09 10:43:25;;;;;;;;;;;;;;;-2.88;83.35;99006.66;5013735;28;20008;-61
2022/02/09 10:45:53;;;;;;;;;;;;;;;-3.24;86.03;98997.47;5013542;28;19933;-61
2022/02/09 10:48:33;;;;;;;;;;;;;;;-3.59;85.82;99002.59;5014891;28;19930;-61
2022/02/09 10:51:15;;;;;;;;;;;;;;;-3.98;87.47;99000.19;5033066;28;19972;-61
2022/02/09 10:54:00;;;;;;;;;;;;;;;-4.21;88.32;99000.72;5033207;28;20049;-61
2022/02/09 10:56:29;;;;;;;;;;;;;;;-4.30;88.78;99005.16;5032491;28;19925;-61
2022/02/09 10:58:57;;;;;;;;;;;;;;;-4.34;88.78;99001.88;5033030;28;19932;-61
2022/02/09 11:01:23;;;;;;;;;;;;;;;-4.31;89.30;98995.88;5032872;28;20419;-61
2022/02/09 11:03:52;;;;;;;;;;;;;;;-4.28;89.62;98999.19;5032983;28;19931;-62
2022/02/09 11:06:19;;;;;;;;;;;;;;;-4.16;88.88;98991.28;5032721;28;19988;-62
2022/02/09 11:08:46;;;;;;;;;;;;;;;-4.08;88.11;98987.75;5032830;28;19947;-62
2022/02/09 11:11:13;;;;;;;;;;;;;;;-4.01;88.13;98992.63;5033051;28;19986;-62
2022/02/09 11:13:40;;;;;;;;;;;;;;;-3.95;87.46;98999.28;5032682;28;19935;-61
2022/02/09 11:16:07;;;;;;;;;;;;;;;-3.81;87.57;98992.13;5032698;28;19931;-61
2022/02/09 11:18:35;;;;;;;;;;;;;;;-3.64;87.01;98991.72;5032999;28;20015;-62
2022/02/09 11:21:10;;;;;;;;;;;;;;;-3.65;86.97;98992.56;5032640;28;19971;-61
2022/02/09 11:23:40;;;;;;;;;;;;;;;-3.69;86.82;98985.09;5032829;28;19971;-61
2022/02/09 11:26:27;;;;;;;;;;;;;;;-3.86;87.98;98993.94;5032604;28;20425;-62
2022/02/09 11:29:10;;;;;;;;;;;;;;;-3.91;87.76;98980.53;5032535;28;19925;-60
2022/02/09 11:32:03;;;;;;;;;;;;;;;-3.73;87.46;98974.16;5032403;28;19948;-60
2022/02/09 11:34:30;;;;;;;;;;;;;;;-3.58;87.54;98972.94;5012590;28;20334;-60
2022/02/09 11:37:11;;;;;;;;;;;;;;;-3.45;87.13;98969.19;5012668;28;19925;-60
2022/02/09 11:39:43;;;;;;;;;;;;;;;-3.17;86.24;98958.28;5012907;28;19931;-60
2022/02/09 11:42:26;;;;;;;;;;;;;;;-3.17;85.83;98953.19;5012561;28;19932;-61
2022/02/09 11:44:58;;;;;;;;;;;;;;;-2.88;84.91;98943.03;5012765;28;19926;-61
2022/02/09 11:47:43;;;;;;;;;;;;;;;-2.46;83.39;98941.78;5012633;28;19926;-61
2022/02/09 11:50:53;;;;;;;;;;;;;;;-1.83;80.76;98940.56;5012604;28;20008;-61
2022/02/09 11:56:54;;;;;;;;;;;;;;;-2.91;85.02;98938.00;5012767;28;19932;-61
2022/02/09 11:59:52;;;;;;;;;;;;;;;-3.03;85.14;98938.38;5019964;28;19925;-61
2022/02/09 12:10:49;;;;;;;;;;;;;;;-3.49;86.73;98939.66;5036291;28;20409;-61
2022/02/09 12:13:32;;;;;;;;;;;;;;;-3.37;87.05;98933.38;5035137;28;19925;-61
2022/02/09 12:18:37;;;;;;;;;;;;;;;-3.51;86.86;98934.59;5036117;28;19984;-61
2022/02/09 12:21:15;;;;;;;;;;;;;;;-3.50;87.14;98948.97;5036152;28;19932;-61
2022/02/09 12:23:44;;;;;;;;;;;;;;;-3.53;86.38;98949.06;5035910;28;19961;-61
2022/02/09 12:26:13;;;;;;;;;;;;;;;-3.64;87.07;98951.06;5035660;28;19932;-61
2022/02/09 12:28:43;;;;;;;;;;;;;;;-3.53;86.87;98943.13;5035552;28;20359;-61
2022/02/09 12:31:22;;;;;;;;;;;;;;;-3.58;86.30;98937.34;5035878;28;19925;-61
2022/02/09 12:33:51;;;;;;;;;;;;;;;-3.65;86.81;98926.47;5034781;28;19940;-61
2022/02/09 12:36:19;;;;;;;;;;;;;;;-3.60;87.33;98934.00;5035700;28;19929;-61
2022/02/09 12:38:47;;;;;;;;;;;;;;;-3.59;86.94;98926.34;5035717;28;20277;-61
2022/02/09 12:41:17;;;;;;;;;;;;;;;-3.71;86.57;98939.38;5035593;28;20359;-61
2022/02/09 12:43:49;;;;;;;;;;;;;;;-3.59;87.07;98945.84;5034101;28;20007;-61
2022/02/09 12:46:16;;;;;;;;;;;;;;;-3.54;86.61;98941.47;5035596;28;19936;-61
2022/02/09 12:48:43;;;;;;;;;;;;;;;-3.57;87.45;98946.63;5033720;28;19932;-61
2022/02/09 12:51:10;;;;;;;;;;;;;;;-3.57;87.13;98933.91;5020457;28;20565;-61
2022/02/09 12:53:38;;;;;;;;;;;;;;;-3.39;86.20;98943.63;5024806;28;20314;-62
2022/02/09 12:56:19;;;;;;;;;;;;;;;-3.51;87.17;98933.75;5024246;28;20364;-61
2022/02/09 12:58:54;;;;;;;;;;;;;;;-3.49;87.26;98937.09;5032484;28;20375;-61
2022/02/09 13:01:21;;;;;;;;;;;;;;;-3.49;87.54;98934.56;5035522;28;19932;-61
2022/02/09 13:03:48;;;;;;;;;;;;;;;-3.56;87.51;98938.13;5035110;28;19943;-61
2022/02/09 13:06:15;;;;;;;;;;;;;;;-3.67;87.36;98937.56;5035107;28;19933;-61
2022/02/09 13:08:41;;;;;;;;;;;;;;;-3.64;88.17;98938.34;5034374;28;19947;-61
2022/02/09 13:11:17;;;;;;;;;;;;;;;-3.59;87.88;98935.69;5035032;28;20298;-61
2022/02/09 13:13:49;;;;;;;;;;;;;;;-3.64;88.29;98927.34;5035143;28;20007;-60
2022/02/09 13:16:36;;;;;;;;;;;;;;;-3.66;87.42;98924.84;5034936;28;19932;-60
2022/02/09 13:19:18;;;;;;;;;;;;;;;-3.65;88.01;98921.41;5034381;28;20016;-61
2022/02/09 14:04:14;;;;;;;;;;;;;;;-3.86;90.58;98869.44;5021721;28;19931;-61
2022/02/09 14:12:41;;;;;;;;;;;;;;;-3.77;91.20;98871.75;5028764;28;19936;-61
2022/02/09 14:35:04;;;;;;;;;;;;;;;-3.98;91.89;98870.59;5013039;28;19925;-61
2022/02/09 14:51:36;;;;;;;;;;;;;;;-4.01;92.23;98854.59;5029755;28;19929;-62
2022/02/09 14:54:14;;;;;;;;;;;;;;;-4.01;92.95;98845.28;5033472;28;20008;-62
2022/02/09 14:56:53;;;;;;;;;;;;;;;-3.94;92.93;98843.41;5033323;28;20358;-62
2022/02/09 14:59:33;;;;;;;;;;;;;;;-3.90;92.74;98841.59;5033183;28;19929;-61
2022/02/09 15:02:07;;;;;;;;;;;;;;;-3.86;93.02;98838.13;5033302;28;19936;-62
2022/02/09 15:04:50;;;;;;;;;;;;;;;-3.85;93.37;98835.53;5033055;28;20303;-62
2022/02/09 15:07:32;;;;;;;;;;;;;;;-3.79;93.39;98826.91;5033080;28;19925;-62
2022/02/09 15:10:08;;;;;;;;;;;;;;;-3.78;93.43;98828.56;5032931;28;19976;-61
2022/02/09 15:12:49;;;;;;;;;;;;;;;-3.73;93.18;98830.09;5032860;28;20315;-61
2022/02/09 15:15:26;;;;;;;;;;;;;;;-3.69;93.41;98832.59;5033133;28;19932;-62
2022/02/09 15:18:20;;;;;;;;;;;;;;;-3.66;93.25;98827.41;5033160;28;19925;-63
2022/02/09 15:21:12;;;;;;;;;;;;;;;-3.61;93.11;98828.94;5032933;28;19932;-63
2022/02/09 15:23:40;;;;;;;;;;;;;;;-3.58;93.68;98818.69;5032840;28;19979;-63
2022/02/09 15:26:09;;;;;;;;;;;;;;;-3.57;93.32;98828.00;5033125;28;19925;-62
2022/02/09 15:28:36;;;;;;;;;;;;;;;-3.53;93.00;98833.81;5032839;28;20012;-62
2022/02/09 15:31:12;;;;;;;;;;;;;;;-3.51;92.85;98837.16;5032807;28;20295;-61
2022/02/09 15:33:43;;;;;;;;;;;;;;;-3.52;93.42;98832.94;5033277;28;20011;-63
2022/02/09 15:36:13;;;;;;;;;;;;;;;-3.51;93.22;98832.06;5032546;28;19925;-63
2022/02/09 15:38:45;;;;;;;;;;;;;;;-3.51;93.29;98827.81;5032802;28;19929;-62
2022/02/09 15:41:21;;;;;;;;;;;;;;;-3.51;93.56;98817.63;5032184;28;20445;-62
2022/02/09 16:06:22;;;;;;;;;;;;;;;-3.55;94.69;98777.09;5032277;28;19932;-62
2022/02/09 16:09:13;;;;;;;;;;;;;;;-3.54;94.58;98781.31;5032247;28;19932;-62
2022/02/09 16:20:50;;;;;;;;;;;;;;;-3.48;94.57;98791.28;5009734;28;19932;-62
2022/02/09 16:23:05;;;;;;;;;;;;;;;-3.44;94.80;98789.47;5031923;28;19933;-61
2022/02/09 16:25:54;;;;;;;;;;;;;;;-3.44;94.81;98789.47;5032085;28;20012;-65
2022/02/09 16:34:21;;;;;;;;;;;;;;;-3.38;95.16;98784.22;5007676;28;19929;-61
2022/02/09 16:44:59;;;;;;;;;;;;;;;-3.33;94.94;98756.94;5031943;28;19936;-62
2022/02/09 16:47:46;;;;;;;;;;;;;;;-3.31;95.30;98752.66;5031857;28;20012;-61
2022/02/09 16:50:16;;;;;;;;;;;;;;;-3.30;95.35;98757.69;5032010;28;19925;-63
2022/02/09 16:52:48;;;;;;;;;;;;;;;-3.30;95.28;98754.31;5031826;28;19925;-61
2022/02/09 17:19:50;;;;;;;;;;;;;;;-3.13;95.22;98731.72;5035050;28;19932;-61
2022/02/09 17:22:16;;;;;;;;;;;;;;;-3.12;95.44;98725.75;5034640;28;20015;-61
2022/02/09 17:24:43;;;;;;;;;;;;;;;-3.14;95.50;98724.13;5035259;28;20119;-61
2022/02/09 17:27:16;;;;;;;;;;;;;;;-3.12;95.28;98718.13;5035143;28;19925;-61
2022/02/09 17:30:01;;;;;;;;;;;;;;;-3.11;95.29;98708.78;5034985;28;19925;-62
2022/02/09 17:32:36;;;;;;;;;;;;;;;-3.13;95.20;98706.28;5034904;28;19925;-61
2022/02/09 17:35:10;;;;;;;;;;;;;;;-3.16;95.49;98703.84;5035156;28;20399;-61
2022/02/09 17:38:01;;;;;;;;;;;;;;;-3.22;95.55;98701.47;5032901;28;20391;-60
2022/02/09 17:54:35;;;;;;;;;;;;;;;-3.42;95.33;98673.31;5034494;28;20318;-59
2022/02/09 17:57:00;;;;;;;;;;;;;;;-3.47;95.72;98670.91;5034171;28;19979;-60
2022/02/09 17:59:30;;;;;;;;;;;;;;;-3.49;96.15;98672.69;5034111;28;19932;-60
2022/02/09 18:01:57;;;;;;;;;;;;;;;-3.52;95.87;98671.06;5034039;28;20327;-61
2022/02/09 18:04:24;;;;;;;;;;;;;;;-3.46;96.18;98680.22;5034158;28;19939;-61
2022/02/09 18:06:58;;;;;;;;;;;;;;;-3.50;95.71;98687.09;5034405;28;19925;-61
2022/02/09 18:09:30;;;;;;;;;;;;;;;-3.52;96.13;98676.16;5034083;28;19971;-61
2022/02/09 18:12:07;;;;;;;;;;;;;;;-3.51;96.18;98682.88;5032783;28;20291;-62
2022/02/09 18:15:00;;;;;;;;;;;;;;;-3.42;96.59;98681.75;5032644;28;19929;-61
2022/02/09 18:26:11;;;;;;;;;;;;;;;-3.25;96.14;98672.78;5033893;28;19951;-61
2022/02/09 18:31:34;;;;;;;;;;;;;;;-3.25;96.04;98678.69;5009201;28;19936;-62
2022/02/09 18:34:34;;;;;;;;;;;;;;;-3.23;96.27;98673.56;5072325;28;19924;-65
2022/02/09 18:42:51;;;;;;;;;;;;;;;-3.15;96.23;98674.97;5039984;28;19967;-65
2022/02/09 18:45:28;;;;;;;;;;;;;;;-3.10;96.07;98673.13;5073637;28;19928;-66
2022/02/09 18:48:15;;;;;;;;;;;;;;;-3.08;96.16;98662.91;5073384;28;19936;-65
2022/02/09 19:02:03;;;;;;;;;;;;;;;-3.04;95.83;98641.53;5073006;28;20010;-64
2022/02/09 19:04:33;;;;;;;;;;;;;;;-3.02;95.59;98644.88;5072954;28;20034;-65
2022/02/09 19:07:36;;;;;;;;;;;;;;;-3.00;95.81;98648.22;5072967;28;20289;-65
2022/02/09 19:18:32;;;;;;;;;;;;;;;-2.99;95.67;98649.84;5049772;28;19932;-65
2022/02/09 19:26:16;;;;;;;;;;;;;;;-2.98;95.97;98645.59;5072670;28;19971;-65
2022/02/09 19:26:42;;;;;;;;;;;;;;;-2.99;96.11;98652.41;5049977;28;19924;-65
2022/02/09 19:29:46;;;;;;;;;;;;;;;-2.99;96.06;98652.41;5072526;28;20371;-65
2022/02/09 19:32:29;;;;;;;;;;;;;;;-2.94;95.82;98659.88;5072725;28;20378;-65
2022/02/09 19:40:47;;;;;;;;;;;;;;;-2.91;96.33;98654.69;5070156;28;19999;-65
2022/02/09 19:46:15;;;;;;;;;;;;;;;-2.86;95.86;98646.00;5072166;28;20386;-65
2022/02/09 19:48:45;;;;;;;;;;;;;;;-2.84;96.12;98633.25;5052320;28;19925;-65
2022/02/09 19:51:19;;;;;;;;;;;;;;;-2.81;95.69;98637.41;5052352;28;19925;-66
2022/02/09 19:54:04;;;;;;;;;;;;;;;-2.85;95.92;98637.50;5052205;28;19928;-66
2022/02/09 19:56:30;;;;;;;;;;;;;;;-2.80;95.96;98636.50;5066676;28;19932;-66
2022/02/09 19:59:00;;;;;;;;;;;;;;;-2.79;96.03;98644.09;5072156;28;20020;-67
2022/02/09 20:01:35;;;;;;;;;;;;;;;-2.78;95.79;98643.22;5072193;28;19924;-64
2022/02/09 20:04:02;;;;;;;;;;;;;;;-2.74;95.52;98641.41;5072414;28;19925;-64
2022/02/09 20:06:28;;;;;;;;;;;;;;;-2.73;95.36;98627.78;5072106;28;19955;-67
2022/02/09 20:08:55;;;;;;;;;;;;;;;-2.74;95.50;98621.88;5072067;28;19924;-67
2022/02/09 20:11:22;;;;;;;;;;;;;;;-2.74;95.22;98628.69;5072660;28;19972;-65
2022/02/09 20:13:50;;;;;;;;;;;;;;;-2.75;95.17;98615.13;5072040;28;19924;-65
2022/02/09 20:16:19;;;;;;;;;;;;;;;-2.75;95.22;98620.22;5072221;28;20421;-64
2022/02/09 20:18:48;;;;;;;;;;;;;;;-2.77;95.42;98618.59;5072049;28;19931;-67
2022/02/09 20:21:14;;;;;;;;;;;;;;;-2.77;95.58;98621.97;5072404;28;19925;-64
2022/02/09 20:23:41;;;;;;;;;;;;;;;-2.81;95.74;98620.41;5071914;28;19982;-64
2022/02/09 20:26:10;;;;;;;;;;;;;;;-2.77;95.77;98633.88;5072336;28;20327;-66
2022/02/09 20:28:41;;;;;;;;;;;;;;;-2.75;95.53;98625.31;5073241;28;19930;-67
2022/02/09 20:31:12;;;;;;;;;;;;;;;-2.75;95.61;98624.44;5075981;28;19924;-66
2022/02/09 20:33:45;;;;;;;;;;;;;;;-2.73;95.52;98609.97;5075363;28;19928;-67
2022/02/09 20:36:16;;;;;;;;;;;;;;;-2.76;95.34;98612.63;5075703;28;19972;-66
2022/02/09 20:38:49;;;;;;;;;;;;;;;-2.78;95.33;98611.84;5075675;28;19982;-66
2022/02/09 20:41:18;;;;;;;;;;;;;;;-2.78;95.21;98609.28;5075580;28;19928;-65
2022/02/09 20:43:57;;;;;;;;;;;;;;;-2.80;95.65;98603.41;5075424;28;19996;-65
2022/02/09 20:46:25;;;;;;;;;;;;;;;-2.81;95.34;98599.22;5075711;28;19924;-66
2022/02/09 20:48:52;;;;;;;;;;;;;;;-2.91;95.10;98586.81;5075970;28;19971;-65
2022/02/09 20:51:20;;;;;;;;;;;;;;;-3.02;95.40;98562.63;5075718;28;19924;-67
2022/02/09 20:53:46;;;;;;;;;;;;;;;-3.09;95.53;98573.00;5075540;28;19960;-66
2022/02/09 20:56:13;;;;;;;;;;;;;;;-3.23;95.16;98571.84;5075408;28;20023;-65
2022/02/09 20:58:43;;;;;;;;;;;;;;;-3.35;95.82;98585.78;5075235;28;20323;-66
2022/02/09 21:01:13;;;;;;;;;;;;;;;-3.38;96.02;98593.50;5075335;28;20290;-65
2022/02/09 21:03:47;;;;;;;;;;;;;;;-3.36;96.47;98607.84;5075600;28;19978;-67
2022/02/09 21:06:22;;;;;;;;;;;;;;;-3.34;96.82;98595.91;5075195;28;19924;-66
2022/02/09 21:08:59;;;;;;;;;;;;;;;-3.31;96.66;98608.53;5075104;28;20309;-65
2022/02/09 21:11:39;;;;;;;;;;;;;;;-3.39;96.53;98607.94;5075330;28;19958;-66
2022/02/09 21:14:14;;;;;;;;;;;;;;;-3.48;96.63;98600.59;5075076;28;19928;-68
2022/02/09 21:16:53;;;;;;;;;;;;;;;-3.56;96.22;98605.09;5075119;28;19924;-68
2022/02/09 21:19:39;;;;;;;;;;;;;;;-3.66;96.66;98607.09;5075098;28;20382;-68
2022/02/09 21:28:19;;;;;;;;;;;;;;;-3.60;97.44;98606.91;5074667;28;19932;-68
2022/02/09 21:44:55;;;;;;;;;;;;;;;-4.18;95.78;98571.44;5046106;28;19948;-67
2022/02/09 21:55:54;;;;;;;;;;;;;;;-4.45;98.08;98597.63;5026464;28;19925;-68
2022/02/09 21:58:35;;;;;;;;;;;;;;;-4.51;97.97;98606.25;5074333;28;19946;-68
2022/02/09 22:01:31;;;;;;;;;;;;;;;-4.56;98.11;98600.47;5074428;28;19928;-67
2022/02/09 22:20:35;;;;;;;;;;;;;;;-4.88;99.54;98611.47;5094097;28;20389;-60
2022/02/09 22:23:26;;;;;;;;;;;;;;;-4.79;99.97;98607.88;5094082;28;19924;-60
2022/02/09 22:28:37;;;;;;;;;;;;;;;-4.61;100.00;98602.31;5093874;28;20034;-62
2022/02/09 22:31:30;;;;;;;;;;;;;;;-4.65;99.69;98593.97;5093940;28;19924;-62
2022/02/09 22:47:54;;;;;;;;;;;;;;;-4.97;99.08;98587.22;5093930;28;19931;-60
2022/02/09 22:50:40;;;;;;;;;;;;;;;-4.98;99.52;98587.22;5093378;28;19924;-60
2022/02/09 22:55:50;;;;;;;;;;;;;;;-5.22;99.26;98571.78;5093346;28;19930;-60
2022/02/09 22:58:17;;;;;;;;;;;;;;;-5.22;99.29;98573.50;5093245;28;20346;-60
2022/02/09 23:00:56;;;;;;;;;;;;;;;-5.27;99.20;98577.00;5093316;28;20388;-60